sensor_id;sensor_type;location;lat;lon;timestamp;P1;durP1;ratioP1;P2;durP2;ratioP2
15194;SDS011;7698;42.478;23.756;2023-07-31T00:01:33;3.35;;;2.70;;
15194;SDS011;7698;42.478;23.756;2023-07-31T00:04:00;3.40;;;3.20;;
15194;SDS011;7698;42.478;23.756;2023-07-31T00:06:26;4.45;;;3.67;;
15194;SDS011;7698;42.478;23.756;2023-07-31T00:08:53;3.55;;;3.35;;
15194;SDS011;7698;42.478;23.756;2023-07-31T00:11:19;4.18;;;3.80;;
15194;SDS011;7698;42.478;23.756;2023-07-31T00:13:47;3.75;;;3.55;;
15194;SDS011;7698;42.478;23.756;2023-07-31T00:16:14;4.40;;;4.00;;
15194;SDS011;7698;42.478;23.756;2023-07-31T00:18:40;3.80;;;3.50;;
15194;SDS011;7698;42.478;23.756;2023-07-31T00:21:07;4.60;;;4.22;;
15194;SDS011;7698;42.478;23.756;2023-07-31T00:23:33;4.30;;;3.90;;
15194;SDS011;7698;42.478;23.756;2023-07-31T00:26:00;4.35;;;4.05;;
15194;SDS011;7698;42.478;23.756;2023-07-31T00:28:27;4.57;;;4.22;;
15194;SDS011;7698;42.478;23.756;2023-07-31T00:30:55;4.93;;;4.50;;
15194;SDS011;7698;42.478;23.756;2023-07-31T00:33:21;4.20;;;3.90;;
15194;SDS011;7698;42.478;23.756;2023-07-31T00:35:48;4.68;;;4.28;;
15194;SDS011;7698;42.478;23.756;2023-07-31T00:38:15;4.05;;;3.75;;
15194;SDS011;7698;42.478;23.756;2023-07-31T00:40:41;3.75;;;3.45;;
15194;SDS011;7698;42.478;23.756;2023-07-31T00:43:08;4.38;;;3.97;;
15194;SDS011;7698;42.478;23.756;2023-07-31T00:45:35;3.80;;;3.50;;
15194;SDS011;7698;42.478;23.756;2023-07-31T00:48:03;3.72;;;3.45;;
15194;SDS011;7698;42.478;23.756;2023-07-31T00:50:31;5.18;;;4.68;;
15194;SDS011;7698;42.478;23.756;2023-07-31T00:52:57;4.65;;;4.35;;
15194;SDS011;7698;42.478;23.756;2023-07-31T00:55:24;5.22;;;4.82;;
15194;SDS011;7698;42.478;23.756;2023-07-31T00:57:50;4.57;;;4.18;;
15194;SDS011;7698;42.478;23.756;2023-07-31T01:00:18;4.55;;;4.22;;
15194;SDS011;7698;42.478;23.756;2023-07-31T01:02:44;5.82;;;5.28;;
15194;SDS011;7698;42.478;23.756;2023-07-31T01:05:12;4.90;;;4.57;;
15194;SDS011;7698;42.478;23.756;2023-07-31T01:07:40;4.40;;;4.07;;
15194;SDS011;7698;42.478;23.756;2023-07-31T01:10:16;5.80;;;5.30;;
15194;SDS011;7698;42.478;23.756;2023-07-31T01:12:43;5.60;;;5.18;;
15194;SDS011;7698;42.478;23.756;2023-07-31T01:15:11;5.50;;;5.00;;
15194;SDS011;7698;42.478;23.756;2023-07-31T01:17:40;5.63;;;5.15;;
15194;SDS011;7698;42.478;23.756;2023-07-31T01:20:08;4.80;;;4.50;;
15194;SDS011;7698;42.478;23.756;2023-07-31T01:22:44;4.38;;;3.85;;
15194;SDS011;7698;42.478;23.756;2023-07-31T01:25:16;5.22;;;4.80;;
15194;SDS011;7698;42.478;23.756;2023-07-31T01:27:50;5.03;;;4.72;;
15194;SDS011;7698;42.478;23.756;2023-07-31T01:30:20;4.70;;;4.40;;
15194;SDS011;7698;42.478;23.756;2023-07-31T01:32:48;5.57;;;5.22;;
15194;SDS011;7698;42.478;23.756;2023-07-31T01:35:16;5.50;;;5.03;;
15194;SDS011;7698;42.478;23.756;2023-07-31T01:37:42;5.13;;;4.63;;
15194;SDS011;7698;42.478;23.756;2023-07-31T01:40:09;5.22;;;4.78;;
15194;SDS011;7698;42.478;23.756;2023-07-31T01:42:35;5.32;;;5.03;;
15194;SDS011;7698;42.478;23.756;2023-07-31T01:45:04;4.57;;;4.28;;
15194;SDS011;7698;42.478;23.756;2023-07-31T01:47:30;5.88;;;5.38;;
15194;SDS011;7698;42.478;23.756;2023-07-31T01:49:57;4.70;;;4.40;;
15194;SDS011;7698;42.478;23.756;2023-07-31T01:52:23;5.80;;;5.38;;
15194;SDS011;7698;42.478;23.756;2023-07-31T01:54:50;5.18;;;4.82;;
15194;SDS011;7698;42.478;23.756;2023-07-31T01:57:16;5.30;;;5.00;;
15194;SDS011;7698;42.478;23.756;2023-07-31T01:59:43;5.53;;;5.05;;
15194;SDS011;7698;42.478;23.756;2023-07-31T02:02:11;5.32;;;5.03;;
15194;SDS011;7698;42.478;23.756;2023-07-31T02:04:37;4.88;;;4.45;;
15194;SDS011;7698;42.478;23.756;2023-07-31T02:07:04;4.72;;;4.43;;
15194;SDS011;7698;42.478;23.756;2023-07-31T02:09:31;5.30;;;4.90;;
15194;SDS011;7698;42.478;23.756;2023-07-31T02:11:58;6.35;;;5.75;;
15194;SDS011;7698;42.478;23.756;2023-07-31T02:14:24;6.47;;;6.07;;
15194;SDS011;7698;42.478;23.756;2023-07-31T02:16:51;7.00;;;6.50;;
15194;SDS011;7698;42.478;23.756;2023-07-31T02:19:19;6.80;;;6.20;;
15194;SDS011;7698;42.478;23.756;2023-07-31T02:21:45;6.10;;;5.57;;
15194;SDS011;7698;42.478;23.756;2023-07-31T02:24:12;6.30;;;5.80;;
15194;SDS011;7698;42.478;23.756;2023-07-31T02:26:38;5.15;;;4.85;;
15194;SDS011;7698;42.478;23.756;2023-07-31T02:29:05;5.47;;;5.03;;
15194;SDS011;7698;42.478;23.756;2023-07-31T02:31:31;5.35;;;4.95;;
15194;SDS011;7698;42.478;23.756;2023-07-31T02:33:58;4.88;;;4.57;;
15194;SDS011;7698;42.478;23.756;2023-07-31T02:36:26;6.38;;;5.97;;
15194;SDS011;7698;42.478;23.756;2023-07-31T02:38:52;5.85;;;5.45;;
15194;SDS011;7698;42.478;23.756;2023-07-31T02:41:19;5.18;;;4.88;;
15194;SDS011;7698;42.478;23.756;2023-07-31T02:43:45;6.13;;;5.70;;
15194;SDS011;7698;42.478;23.756;2023-07-31T02:46:12;6.22;;;5.82;;
15194;SDS011;7698;42.478;23.756;2023-07-31T02:48:38;6.22;;;5.80;;
15194;SDS011;7698;42.478;23.756;2023-07-31T02:51:05;6.15;;;5.75;;
15194;SDS011;7698;42.478;23.756;2023-07-31T02:53:33;5.95;;;5.55;;
15194;SDS011;7698;42.478;23.756;2023-07-31T02:55:59;6.65;;;6.15;;
15194;SDS011;7698;42.478;23.756;2023-07-31T02:58:26;6.22;;;5.80;;
15194;SDS011;7698;42.478;23.756;2023-07-31T03:00:52;6.20;;;5.80;;
15194;SDS011;7698;42.478;23.756;2023-07-31T03:03:19;6.65;;;6.25;;
15194;SDS011;7698;42.478;23.756;2023-07-31T03:05:45;6.32;;;5.90;;
15194;SDS011;7698;42.478;23.756;2023-07-31T03:08:12;6.25;;;5.75;;
15194;SDS011;7698;42.478;23.756;2023-07-31T03:10:40;6.45;;;6.05;;
15194;SDS011;7698;42.478;23.756;2023-07-31T03:13:06;6.28;;;5.88;;
15194;SDS011;7698;42.478;23.756;2023-07-31T03:15:33;8.05;;;7.45;;
15194;SDS011;7698;42.478;23.756;2023-07-31T03:17:59;10.63;;;9.80;;
15194;SDS011;7698;42.478;23.756;2023-07-31T03:20:26;11.13;;;10.13;;
15194;SDS011;7698;42.478;23.756;2023-07-31T03:22:52;11.43;;;10.55;;
15194;SDS011;7698;42.478;23.756;2023-07-31T03:25:19;11.07;;;10.18;;
15194;SDS011;7698;42.478;23.756;2023-07-31T03:27:47;10.75;;;9.98;;
15194;SDS011;7698;42.478;23.756;2023-07-31T03:30:13;10.95;;;10.15;;
15194;SDS011;7698;42.478;23.756;2023-07-31T03:32:40;14.32;;;13.30;;
15194;SDS011;7698;42.478;23.756;2023-07-31T03:35:07;13.57;;;12.57;;
15194;SDS011;7698;42.478;23.756;2023-07-31T03:37:33;12.73;;;11.82;;
15194;SDS011;7698;42.478;23.756;2023-07-31T03:40:00;13.80;;;12.80;;
15194;SDS011;7698;42.478;23.756;2023-07-31T03:42:27;12.50;;;11.60;;
15194;SDS011;7698;42.478;23.756;2023-07-31T03:44:55;13.50;;;12.45;;
15194;SDS011;7698;42.478;23.756;2023-07-31T03:47:21;14.52;;;13.43;;
15194;SDS011;7698;42.478;23.756;2023-07-31T03:49:48;13.63;;;12.63;;
15194;SDS011;7698;42.478;23.756;2023-07-31T03:52:15;14.60;;;13.30;;
15194;SDS011;7698;42.478;23.756;2023-07-31T03:54:41;13.23;;;12.23;;
15194;SDS011;7698;42.478;23.756;2023-07-31T03:57:09;14.20;;;13.20;;
15194;SDS011;7698;42.478;23.756;2023-07-31T03:59:36;16.25;;;15.00;;
15194;SDS011;7698;42.478;23.756;2023-07-31T04:02:05;16.48;;;15.27;;
15194;SDS011;7698;42.478;23.756;2023-07-31T04:04:32;16.50;;;15.23;;
15194;SDS011;7698;42.478;23.756;2023-07-31T04:06:58;19.50;;;18.00;;
15194;SDS011;7698;42.478;23.756;2023-07-31T04:09:25;17.20;;;15.80;;
15194;SDS011;7698;42.478;23.756;2023-07-31T04:11:52;15.75;;;14.65;;
15194;SDS011;7698;42.478;23.756;2023-07-31T04:14:18;15.85;;;14.70;;
15194;SDS011;7698;42.478;23.756;2023-07-31T04:16:45;16.05;;;14.90;;
15194;SDS011;7698;42.478;23.756;2023-07-31T04:19:13;18.45;;;17.05;;
15194;SDS011;7698;42.478;23.756;2023-07-31T04:21:41;15.95;;;14.75;;
15194;SDS011;7698;42.478;23.756;2023-07-31T04:24:08;17.80;;;16.52;;
15194;SDS011;7698;42.478;23.756;2023-07-31T04:26:34;17.58;;;16.17;;
15194;SDS011;7698;42.478;23.756;2023-07-31T04:29:01;17.20;;;15.85;;
15194;SDS011;7698;42.478;23.756;2023-07-31T04:31:28;18.85;;;17.45;;
15194;SDS011;7698;42.478;23.756;2023-07-31T04:33:54;19.15;;;17.73;;
15194;SDS011;7698;42.478;23.756;2023-07-31T04:36:22;19.20;;;17.65;;
15194;SDS011;7698;42.478;23.756;2023-07-31T04:38:49;20.08;;;18.58;;
15194;SDS011;7698;42.478;23.756;2023-07-31T04:41:15;20.60;;;19.08;;
15194;SDS011;7698;42.478;23.756;2023-07-31T04:43:42;19.65;;;18.23;;
15194;SDS011;7698;42.478;23.756;2023-07-31T04:46:08;19.77;;;18.30;;
15194;SDS011;7698;42.478;23.756;2023-07-31T04:48:35;18.75;;;17.35;;
15194;SDS011;7698;42.478;23.756;2023-07-31T04:51:01;18.05;;;16.65;;
15194;SDS011;7698;42.478;23.756;2023-07-31T04:53:29;16.75;;;15.52;;
15194;SDS011;7698;42.478;23.756;2023-07-31T04:55:56;18.23;;;16.92;;
15194;SDS011;7698;42.478;23.756;2023-07-31T04:58:22;18.98;;;17.58;;
15194;SDS011;7698;42.478;23.756;2023-07-31T05:00:49;20.13;;;18.63;;
15194;SDS011;7698;42.478;23.756;2023-07-31T05:03:16;20.40;;;18.90;;
15194;SDS011;7698;42.478;23.756;2023-07-31T05:05:42;25.17;;;23.27;;
15194;SDS011;7698;42.478;23.756;2023-07-31T05:08:09;24.80;;;22.83;;
15194;SDS011;7698;42.478;23.756;2023-07-31T05:10:36;22.73;;;20.90;;
15194;SDS011;7698;42.478;23.756;2023-07-31T05:13:03;21.08;;;19.55;;
15194;SDS011;7698;42.478;23.756;2023-07-31T05:15:30;21.02;;;19.42;;
15194;SDS011;7698;42.478;23.756;2023-07-31T05:17:57;21.77;;;20.17;;
15194;SDS011;7698;42.478;23.756;2023-07-31T05:20:23;20.42;;;18.92;;
15194;SDS011;7698;42.478;23.756;2023-07-31T05:22:50;20.42;;;18.92;;
15194;SDS011;7698;42.478;23.756;2023-07-31T05:25:17;19.98;;;18.48;;
15194;SDS011;7698;42.478;23.756;2023-07-31T05:27:45;20.60;;;18.95;;
15194;SDS011;7698;42.478;23.756;2023-07-31T05:30:11;19.35;;;17.95;;
15194;SDS011;7698;42.478;23.756;2023-07-31T05:32:38;21.13;;;19.42;;
15194;SDS011;7698;42.478;23.756;2023-07-31T05:35:05;20.40;;;18.90;;
15194;SDS011;7698;42.478;23.756;2023-07-31T05:37:31;19.25;;;17.85;;
15194;SDS011;7698;42.478;23.756;2023-07-31T05:39:58;18.05;;;16.70;;
15194;SDS011;7698;42.478;23.756;2023-07-31T05:42:25;18.85;;;17.45;;
15194;SDS011;7698;42.478;23.756;2023-07-31T05:44:53;19.17;;;17.77;;
15194;SDS011;7698;42.478;23.756;2023-07-31T05:47:19;18.48;;;17.08;;
15194;SDS011;7698;42.478;23.756;2023-07-31T05:49:46;18.15;;;16.85;;
15194;SDS011;7698;42.478;23.756;2023-07-31T05:52:12;20.23;;;18.73;;
15194;SDS011;7698;42.478;23.756;2023-07-31T05:54:39;18.83;;;17.42;;
15194;SDS011;7698;42.478;23.756;2023-07-31T05:57:05;20.85;;;19.15;;
15194;SDS011;7698;42.478;23.756;2023-07-31T05:59:32;19.95;;;18.48;;
15194;SDS011;7698;42.478;23.756;2023-07-31T06:02:00;20.30;;;18.70;;
15194;SDS011;7698;42.478;23.756;2023-07-31T06:04:27;22.23;;;20.42;;
15194;SDS011;7698;42.478;23.756;2023-07-31T06:06:54;22.02;;;20.42;;
15194;SDS011;7698;42.478;23.756;2023-07-31T06:09:20;19.73;;;18.33;;
15194;SDS011;7698;42.478;23.756;2023-07-31T06:11:47;22.02;;;20.33;;
15194;SDS011;7698;42.478;23.756;2023-07-31T06:14:13;19.05;;;17.63;;
15194;SDS011;7698;42.478;23.756;2023-07-31T06:16:40;20.88;;;19.33;;
15194;SDS011;7698;42.478;23.756;2023-07-31T06:19:08;17.13;;;15.73;;
15194;SDS011;7698;42.478;23.756;2023-07-31T06:21:34;20.30;;;18.80;;
15194;SDS011;7698;42.478;23.756;2023-07-31T06:24:02;19.00;;;17.60;;
15194;SDS011;7698;42.478;23.756;2023-07-31T06:26:29;18.13;;;16.73;;
15194;SDS011;7698;42.478;23.756;2023-07-31T06:28:55;17.15;;;15.88;;
15194;SDS011;7698;42.478;23.756;2023-07-31T06:31:22;18.52;;;17.17;;
15194;SDS011;7698;42.478;23.756;2023-07-31T06:33:49;15.75;;;14.55;;
15194;SDS011;7698;42.478;23.756;2023-07-31T06:36:17;15.57;;;14.48;;
15194;SDS011;7698;42.478;23.756;2023-07-31T06:38:43;15.05;;;14.02;;
15194;SDS011;7698;42.478;23.756;2023-07-31T06:41:10;14.85;;;13.75;;
15194;SDS011;7698;42.478;23.756;2023-07-31T06:43:36;14.75;;;13.65;;
15194;SDS011;7698;42.478;23.756;2023-07-31T06:46:04;14.82;;;13.82;;
15194;SDS011;7698;42.478;23.756;2023-07-31T06:48:31;13.25;;;12.35;;
15194;SDS011;7698;42.478;23.756;2023-07-31T06:50:57;11.85;;;11.05;;
15194;SDS011;7698;42.478;23.756;2023-07-31T06:53:25;11.35;;;10.50;;
15194;SDS011;7698;42.478;23.756;2023-07-31T06:55:52;10.77;;;9.98;;
15194;SDS011;7698;42.478;23.756;2023-07-31T06:58:18;10.63;;;9.93;;
15194;SDS011;7698;42.478;23.756;2023-07-31T07:00:45;9.63;;;8.93;;
15194;SDS011;7698;42.478;23.756;2023-07-31T07:03:11;8.50;;;8.00;;
15194;SDS011;7698;42.478;23.756;2023-07-31T07:05:40;8.90;;;8.30;;
15194;SDS011;7698;42.478;23.756;2023-07-31T07:08:06;8.35;;;7.75;;
15194;SDS011;7698;42.478;23.756;2023-07-31T07:10:34;8.02;;;7.50;;
15194;SDS011;7698;42.478;23.756;2023-07-31T07:13:01;8.82;;;8.23;;
15194;SDS011;7698;42.478;23.756;2023-07-31T07:15:27;7.85;;;7.35;;
15194;SDS011;7698;42.478;23.756;2023-07-31T07:17:54;7.25;;;6.80;;
15194;SDS011;7698;42.478;23.756;2023-07-31T07:20:20;7.50;;;6.97;;
15194;SDS011;7698;42.478;23.756;2023-07-31T07:22:47;7.03;;;6.47;;
15194;SDS011;7698;42.478;23.756;2023-07-31T07:25:14;6.28;;;5.88;;
15194;SDS011;7698;42.478;23.756;2023-07-31T07:27:42;6.88;;;6.38;;
15194;SDS011;7698;42.478;23.756;2023-07-31T07:30:09;5.75;;;5.32;;
15194;SDS011;7698;42.478;23.756;2023-07-31T07:32:35;6.50;;;6.00;;
15194;SDS011;7698;42.478;23.756;2023-07-31T07:35:02;5.50;;;5.18;;
15194;SDS011;7698;42.478;23.756;2023-07-31T07:37:29;5.38;;;5.05;;
15194;SDS011;7698;42.478;23.756;2023-07-31T07:39:56;4.57;;;4.28;;
15194;SDS011;7698;42.478;23.756;2023-07-31T07:42:22;4.68;;;4.38;;
15194;SDS011;7698;42.478;23.756;2023-07-31T07:44:50;5.00;;;4.53;;
15194;SDS011;7698;42.478;23.756;2023-07-31T07:47:17;4.65;;;4.28;;
15194;SDS011;7698;42.478;23.756;2023-07-31T07:49:44;4.22;;;3.92;;
15194;SDS011;7698;42.478;23.756;2023-07-31T07:52:10;4.25;;;3.85;;
15194;SDS011;7698;42.478;23.756;2023-07-31T07:54:37;4.30;;;4.00;;
15194;SDS011;7698;42.478;23.756;2023-07-31T07:57:04;4.22;;;3.88;;
15194;SDS011;7698;42.478;23.756;2023-07-31T07:59:30;3.42;;;3.22;;
15194;SDS011;7698;42.478;23.756;2023-07-31T08:01:58;3.80;;;3.50;;
15194;SDS011;7698;42.478;23.756;2023-07-31T08:04:25;3.45;;;3.25;;
15194;SDS011;7698;42.478;23.756;2023-07-31T08:06:51;3.85;;;3.55;;
15194;SDS011;7698;42.478;23.756;2023-07-31T08:09:18;4.00;;;3.70;;
15194;SDS011;7698;42.478;23.756;2023-07-31T08:11:44;3.90;;;3.70;;
15194;SDS011;7698;42.478;23.756;2023-07-31T08:14:11;3.90;;;3.60;;
15194;SDS011;7698;42.478;23.756;2023-07-31T08:16:38;3.55;;;3.13;;
15194;SDS011;7698;42.478;23.756;2023-07-31T08:19:06;3.47;;;3.28;;
15194;SDS011;7698;42.478;23.756;2023-07-31T08:21:32;4.15;;;3.65;;
15194;SDS011;7698;42.478;23.756;2023-07-31T08:23:59;4.22;;;3.63;;
15194;SDS011;7698;42.478;23.756;2023-07-31T08:26:25;3.80;;;3.50;;
15194;SDS011;7698;42.478;23.756;2023-07-31T08:28:52;3.00;;;2.80;;
15194;SDS011;7698;42.478;23.756;2023-07-31T08:31:19;3.60;;;3.40;;
15194;SDS011;7698;42.478;23.756;2023-07-31T08:33:45;3.28;;;3.08;;
15194;SDS011;7698;42.478;23.756;2023-07-31T08:36:13;2.92;;;2.72;;
15194;SDS011;7698;42.478;23.756;2023-07-31T08:38:39;2.50;;;2.40;;
15194;SDS011;7698;42.478;23.756;2023-07-31T08:41:06;2.72;;;2.53;;
15194;SDS011;7698;42.478;23.756;2023-07-31T08:43:33;2.90;;;2.50;;
15194;SDS011;7698;42.478;23.756;2023-07-31T08:45:59;3.28;;;3.08;;
15194;SDS011;7698;42.478;23.756;2023-07-31T08:48:26;2.88;;;2.67;;
15194;SDS011;7698;42.478;23.756;2023-07-31T08:50:54;2.50;;;2.30;;
15194;SDS011;7698;42.478;23.756;2023-07-31T08:53:22;2.70;;;2.50;;
15194;SDS011;7698;42.478;23.756;2023-07-31T08:55:49;2.50;;;2.40;;
15194;SDS011;7698;42.478;23.756;2023-07-31T08:58:21;2.70;;;2.40;;
15194;SDS011;7698;42.478;23.756;2023-07-31T09:00:48;2.58;;;2.42;;
15194;SDS011;7698;42.478;23.756;2023-07-31T09:03:16;2.38;;;2.28;;
15194;SDS011;7698;42.478;23.756;2023-07-31T09:05:43;2.70;;;2.50;;
15194;SDS011;7698;42.478;23.756;2023-07-31T09:08:11;2.75;;;2.25;;
15194;SDS011;7698;42.478;23.756;2023-07-31T09:10:41;2.58;;;2.38;;
15194;SDS011;7698;42.478;23.756;2023-07-31T09:13:08;2.60;;;2.40;;
15194;SDS011;7698;42.478;23.756;2023-07-31T09:15:35;2.70;;;2.50;;
15194;SDS011;7698;42.478;23.756;2023-07-31T09:18:02;2.25;;;2.13;;
15194;SDS011;7698;42.478;23.756;2023-07-31T09:20:29;2.33;;;2.22;;
15194;SDS011;7698;42.478;23.756;2023-07-31T09:22:56;2.92;;;2.70;;
15194;SDS011;7698;42.478;23.756;2023-07-31T09:25:24;2.90;;;2.70;;
15194;SDS011;7698;42.478;23.756;2023-07-31T09:27:53;2.20;;;2.00;;
15194;SDS011;7698;42.478;23.756;2023-07-31T09:30:20;3.08;;;2.88;;
15194;SDS011;7698;42.478;23.756;2023-07-31T09:32:48;2.97;;;2.78;;
15194;SDS011;7698;42.478;23.756;2023-07-31T09:35:18;3.30;;;3.00;;
15194;SDS011;7698;42.478;23.756;2023-07-31T09:37:48;2.95;;;2.75;;
15194;SDS011;7698;42.478;23.756;2023-07-31T09:40:24;2.55;;;2.40;;
15194;SDS011;7698;42.478;23.756;2023-07-31T09:42:52;2.95;;;2.72;;
15194;SDS011;7698;42.478;23.756;2023-07-31T09:45:19;3.42;;;3.13;;
15194;SDS011;7698;42.478;23.756;2023-07-31T09:47:46;3.20;;;3.00;;
15194;SDS011;7698;42.478;23.756;2023-07-31T09:50:13;3.58;;;3.28;;
15194;SDS011;7698;42.478;23.756;2023-07-31T09:52:40;3.53;;;3.30;;
15194;SDS011;7698;42.478;23.756;2023-07-31T09:55:07;2.70;;;2.50;;
15194;SDS011;7698;42.478;23.756;2023-07-31T09:57:33;3.00;;;2.70;;
15194;SDS011;7698;42.478;23.756;2023-07-31T10:00:02;3.15;;;2.75;;
15194;SDS011;7698;42.478;23.756;2023-07-31T10:02:29;2.78;;;2.58;;
15194;SDS011;7698;42.478;23.756;2023-07-31T10:04:56;2.38;;;2.28;;
15194;SDS011;7698;42.478;23.756;2023-07-31T10:07:24;2.97;;;2.55;;
15194;SDS011;7698;42.478;23.756;2023-07-31T10:09:52;2.40;;;2.25;;
15194;SDS011;7698;42.478;23.756;2023-07-31T10:12:20;2.30;;;2.20;;
15194;SDS011;7698;42.478;23.756;2023-07-31T10:14:49;2.15;;;2.05;;
15194;SDS011;7698;42.478;23.756;2023-07-31T10:17:18;2.20;;;2.00;;
15194;SDS011;7698;42.478;23.756;2023-07-31T10:19:46;2.17;;;2.08;;
15194;SDS011;7698;42.478;23.756;2023-07-31T10:22:13;2.40;;;2.20;;
15194;SDS011;7698;42.478;23.756;2023-07-31T10:24:40;2.63;;;2.42;;
15194;SDS011;7698;42.478;23.756;2023-07-31T10:27:08;2.40;;;2.30;;
15194;SDS011;7698;42.478;23.756;2023-07-31T10:29:35;2.83;;;2.40;;
15194;SDS011;7698;42.478;23.756;2023-07-31T10:32:03;2.50;;;2.30;;
15194;SDS011;7698;42.478;23.756;2023-07-31T10:34:33;2.40;;;2.30;;
15194;SDS011;7698;42.478;23.756;2023-07-31T10:40:02;2.50;;;2.30;;
15194;SDS011;7698;42.478;23.756;2023-07-31T10:42:29;2.40;;;2.20;;
15194;SDS011;7698;42.478;23.756;2023-07-31T10:44:57;2.17;;;2.08;;
15194;SDS011;7698;42.478;23.756;2023-07-31T10:47:24;2.55;;;2.35;;
15194;SDS011;7698;42.478;23.756;2023-07-31T10:49:52;2.33;;;2.22;;
15194;SDS011;7698;42.478;23.756;2023-07-31T10:52:19;2.67;;;2.47;;
15194;SDS011;7698;42.478;23.756;2023-07-31T10:54:47;2.28;;;2.17;;
15194;SDS011;7698;42.478;23.756;2023-07-31T10:57:20;2.85;;;2.65;;
15194;SDS011;7698;42.478;23.756;2023-07-31T10:59:47;2.95;;;2.03;;
15194;SDS011;7698;42.478;23.756;2023-07-31T11:02:23;2.33;;;2.13;;
15194;SDS011;7698;42.478;23.756;2023-07-31T11:07:47;2.35;;;2.15;;
15194;SDS011;7698;42.478;23.756;2023-07-31T11:10:16;1.83;;;1.73;;
15194;SDS011;7698;42.478;23.756;2023-07-31T11:12:42;1.90;;;1.80;;
15194;SDS011;7698;42.478;23.756;2023-07-31T11:15:09;2.00;;;1.90;;
15194;SDS011;7698;42.478;23.756;2023-07-31T11:17:38;1.63;;;1.52;;
15194;SDS011;7698;42.478;23.756;2023-07-31T11:20:05;1.85;;;1.75;;
15194;SDS011;7698;42.478;23.756;2023-07-31T11:22:32;1.90;;;1.80;;
15194;SDS011;7698;42.478;23.756;2023-07-31T11:25:00;2.13;;;2.03;;
15194;SDS011;7698;42.478;23.756;2023-07-31T11:27:27;2.08;;;1.98;;
15194;SDS011;7698;42.478;23.756;2023-07-31T11:29:59;2.88;;;2.05;;
15194;SDS011;7698;42.478;23.756;2023-07-31T11:32:26;1.88;;;1.77;;
15194;SDS011;7698;42.478;23.756;2023-07-31T11:34:52;1.90;;;1.70;;
15194;SDS011;7698;42.478;23.756;2023-07-31T11:37:19;1.95;;;1.85;;
15194;SDS011;7698;42.478;23.756;2023-07-31T11:39:58;1.80;;;1.70;;
15194;SDS011;7698;42.478;23.756;2023-07-31T11:42:26;1.95;;;1.55;;
15194;SDS011;7698;42.478;23.756;2023-07-31T11:44:52;1.60;;;1.50;;
15194;SDS011;7698;42.478;23.756;2023-07-31T11:47:19;2.78;;;1.63;;
15194;SDS011;7698;42.478;23.756;2023-07-31T11:49:46;1.70;;;1.60;;
15194;SDS011;7698;42.478;23.756;2023-07-31T11:52:13;1.70;;;1.60;;
15194;SDS011;7698;42.478;23.756;2023-07-31T11:54:40;1.65;;;1.55;;
15194;SDS011;7698;42.478;23.756;2023-07-31T11:57:07;2.65;;;1.30;;
15194;SDS011;7698;42.478;23.756;2023-07-31T11:59:35;1.88;;;1.65;;
15194;SDS011;7698;42.478;23.756;2023-07-31T12:02:02;1.65;;;1.55;;
15194;SDS011;7698;42.478;23.756;2023-07-31T12:04:28;1.65;;;1.42;;
15194;SDS011;7698;42.478;23.756;2023-07-31T12:06:55;1.50;;;1.40;;
15194;SDS011;7698;42.478;23.756;2023-07-31T12:09:22;1.20;;;1.20;;
15194;SDS011;7698;42.478;23.756;2023-07-31T12:11:48;1.75;;;1.65;;
15194;SDS011;7698;42.478;23.756;2023-07-31T12:14:19;1.70;;;1.60;;
15194;SDS011;7698;42.478;23.756;2023-07-31T12:16:47;1.50;;;1.40;;
15194;SDS011;7698;42.478;23.756;2023-07-31T12:19:14;2.05;;;1.27;;
15194;SDS011;7698;42.478;23.756;2023-07-31T12:21:40;1.58;;;1.10;;
15194;SDS011;7698;42.478;23.756;2023-07-31T12:24:07;1.38;;;1.27;;
15194;SDS011;7698;42.478;23.756;2023-07-31T12:26:34;1.50;;;1.40;;
15194;SDS011;7698;42.478;23.756;2023-07-31T12:29:00;1.42;;;1.33;;
15194;SDS011;7698;42.478;23.756;2023-07-31T12:31:27;1.88;;;1.20;;
15194;SDS011;7698;42.478;23.756;2023-07-31T12:33:55;1.42;;;1.25;;
15194;SDS011;7698;42.478;23.756;2023-07-31T12:36:22;1.50;;;1.40;;
15194;SDS011;7698;42.478;23.756;2023-07-31T12:38:49;1.40;;;1.30;;
15194;SDS011;7698;42.478;23.756;2023-07-31T12:41:16;1.48;;;1.33;;
15194;SDS011;7698;42.478;23.756;2023-07-31T12:43:43;1.65;;;1.55;;
15194;SDS011;7698;42.478;23.756;2023-07-31T12:46:10;1.25;;;1.15;;
15194;SDS011;7698;42.478;23.756;2023-07-31T12:48:38;1.23;;;1.20;;
15194;SDS011;7698;42.478;23.756;2023-07-31T12:51:06;1.30;;;1.30;;
15194;SDS011;7698;42.478;23.756;2023-07-31T12:53:32;1.50;;;1.40;;
15194;SDS011;7698;42.478;23.756;2023-07-31T12:55:59;1.60;;;1.50;;
15194;SDS011;7698;42.478;23.756;2023-07-31T12:58:26;1.60;;;1.50;;
15194;SDS011;7698;42.478;23.756;2023-07-31T13:00:52;2.08;;;1.35;;
15194;SDS011;7698;42.478;23.756;2023-07-31T13:03:19;1.30;;;1.20;;
15194;SDS011;7698;42.478;23.756;2023-07-31T13:05:45;1.30;;;1.25;;
15194;SDS011;7698;42.478;23.756;2023-07-31T13:08:13;1.73;;;1.63;;
15194;SDS011;7698;42.478;23.756;2023-07-31T13:10:41;2.20;;;1.27;;
15194;SDS011;7698;42.478;23.756;2023-07-31T13:13:07;1.17;;;1.15;;
15194;SDS011;7698;42.478;23.756;2023-07-31T13:15:34;1.20;;;1.20;;
15194;SDS011;7698;42.478;23.756;2023-07-31T13:18:01;1.88;;;1.77;;
15194;SDS011;7698;42.478;23.756;2023-07-31T13:20:27;2.15;;;2.05;;
15194;SDS011;7698;42.478;23.756;2023-07-31T13:22:54;1.77;;;1.67;;
15194;SDS011;7698;42.478;23.756;2023-07-31T13:25:22;1.98;;;1.67;;
15194;SDS011;7698;42.478;23.756;2023-07-31T13:27:48;1.55;;;1.45;;
15194;SDS011;7698;42.478;23.756;2023-07-31T13:30:15;2.03;;;1.77;;
15194;SDS011;7698;42.478;23.756;2023-07-31T13:32:42;1.58;;;1.48;;
15194;SDS011;7698;42.478;23.756;2023-07-31T13:35:08;3.75;;;1.88;;
15194;SDS011;7698;42.478;23.756;2023-07-31T13:37:36;1.98;;;1.52;;
15194;SDS011;7698;42.478;23.756;2023-07-31T13:40:03;2.13;;;2.00;;
15194;SDS011;7698;42.478;23.756;2023-07-31T13:42:31;2.00;;;1.75;;
15194;SDS011;7698;42.478;23.756;2023-07-31T13:44:58;1.65;;;1.55;;
15194;SDS011;7698;42.478;23.756;2023-07-31T13:47:25;1.67;;;1.40;;
15194;SDS011;7698;42.478;23.756;2023-07-31T13:49:52;1.50;;;1.50;;
15194;SDS011;7698;42.478;23.756;2023-07-31T13:52:18;1.90;;;1.70;;
15194;SDS011;7698;42.478;23.756;2023-07-31T13:54:45;2.15;;;2.05;;
15194;SDS011;7698;42.478;23.756;2023-07-31T13:57:11;2.10;;;2.00;;
15194;SDS011;7698;42.478;23.756;2023-07-31T13:59:40;2.15;;;2.05;;
15194;SDS011;7698;42.478;23.756;2023-07-31T14:02:07;2.55;;;2.10;;
15194;SDS011;7698;42.478;23.756;2023-07-31T14:04:33;2.58;;;2.47;;
15194;SDS011;7698;42.478;23.756;2023-07-31T14:07:00;2.53;;;2.42;;
15194;SDS011;7698;42.478;23.756;2023-07-31T14:09:27;2.65;;;2.45;;
15194;SDS011;7698;42.478;23.756;2023-07-31T14:11:54;3.42;;;3.22;;
15194;SDS011;7698;42.478;23.756;2023-07-31T14:14:20;3.40;;;3.20;;
15194;SDS011;7698;42.478;23.756;2023-07-31T14:16:48;2.63;;;2.53;;
15194;SDS011;7698;42.478;23.756;2023-07-31T14:19:15;2.20;;;2.10;;
15194;SDS011;7698;42.478;23.756;2023-07-31T14:21:42;2.55;;;2.35;;
15194;SDS011;7698;42.478;23.756;2023-07-31T14:24:09;2.22;;;2.13;;
15194;SDS011;7698;42.478;23.756;2023-07-31T14:26:36;1.95;;;1.85;;
15194;SDS011;7698;42.478;23.756;2023-07-31T14:29:02;2.45;;;1.52;;
15194;SDS011;7698;42.478;23.756;2023-07-31T14:31:29;2.10;;;2.00;;
15194;SDS011;7698;42.478;23.756;2023-07-31T14:33:57;2.72;;;2.53;;
15194;SDS011;7698;42.478;23.756;2023-07-31T14:36:24;3.40;;;3.15;;
15194;SDS011;7698;42.478;23.756;2023-07-31T14:38:50;3.30;;;3.10;;
15194;SDS011;7698;42.478;23.756;2023-07-31T14:41:17;3.33;;;3.08;;
15194;SDS011;7698;42.478;23.756;2023-07-31T14:43:44;2.65;;;2.55;;
15194;SDS011;7698;42.478;23.756;2023-07-31T14:46:10;2.20;;;2.10;;